Barnetts Creek, Kentucky
Current Conditions -  °F | °C
As of 5:35 PM on Friday 19 Dec 2014 (Local Time) from KSJS Reporting Station
Clear Clear  
Wind Chill: 25°   Ceiling: Unl
Heat Index: 30°   Visibility: 10mi
Dew Point: 24°   Wind: 5mph
Humidity: 77%   Direction: 20°NNE
Pressure: 30.24"   Gusts: NA
Location:  37.8382°N, 82.8599°W
Report Text: KSJS 192235Z AUTO 02004KT 10SM CLR M01/M05 A3024 RMK AO2 T10111047
Loading
Personal Weather Stations






























Interactive Weather Map New forecast layout! Learn more

10-Day Weather Forecast

Advertisements
Track Severe Weather on mobile